Time;durP1;ratioP1;P1;durP2;ratioP2;P2;SDS_P1;SDS_P2;PMS_P1;PMS_P2;Temp;Humidity;BMP_temperature;BMP_pressure;BME280_temperature;BME280_humidity;BME280_pressure;Samples;Min_cycle;Max_cycle;Signal;HPM_P1;HPM_P2
2022/01/04 00:01:10;;;;;;;3.63;2.00;;;5.40;99.90;;;;;;4190067;28;20032;-57
2022/01/04 00:03:11;;;;;;;4.70;2.73;;;5.40;99.90;;;;;;4191209;28;20067;-59
2022/01/04 00:05:13;;;;;;;10.37;5.27;;;5.30;99.90;;;;;;4189957;28;20550;-58
2022/01/04 00:07:14;;;;;;;10.83;6.00;;;5.10;99.90;;;;;;4190844;28;20032;-60
2022/01/04 00:09:15;;;;;;;8.97;4.27;;;4.90;99.90;;;;;;4189903;28;20483;-59
2022/01/04 00:13:22;;;;;;;5.47;3.37;;;4.80;99.90;;;;;;4190263;28;20032;-58
2022/01/04 00:15:23;;;;;;;6.13;2.43;;;4.80;99.90;;;;;;4189960;28;20086;-59
2022/01/04 00:17:25;;;;;;;6.13;3.53;;;4.90;99.90;;;;;;4189936;28;20133;-62
2022/01/04 00:19:26;;;;;;;9.03;5.50;;;5.00;99.90;;;;;;4190165;28;20512;-60
2022/01/04 00:21:27;;;;;;;6.83;4.13;;;5.00;99.90;;;;;;4190684;28;20048;-58
2022/01/04 00:23:28;;;;;;;10.53;3.93;;;5.00;99.90;;;;;;4190142;28;20541;-58
2022/01/04 00:25:30;;;;;;;8.30;3.10;;;5.00;99.90;;;;;;4190512;28;20121;-59
2022/01/04 00:27:31;;;;;;;6.97;4.33;;;5.00;99.90;;;;;;4189411;28;20044;-61
2022/01/04 00:29:32;;;;;;;5.60;3.60;;;5.00;99.90;;;;;;4190820;28;20028;-60
2022/01/04 00:31:34;;;;;;;10.27;3.50;;;5.10;99.90;;;;;;4189567;28;20093;-60
2022/01/04 00:33:36;;;;;;;8.37;3.03;;;5.10;99.90;;;;;;4191217;28;20137;-59
2022/01/04 00:35:39;;;;;;;3.67;2.30;;;5.20;99.90;;;;;;4189658;28;20274;-60
2022/01/04 00:37:40;;;;;;;5.10;2.00;;;5.20;99.90;;;;;;4191307;28;20269;-62
2022/01/04 00:39:41;;;;;;;6.70;2.40;;;5.30;99.90;;;;;;4189486;28;20036;-59
2022/01/04 00:41:42;;;;;;;9.33;3.70;;;5.30;99.90;;;;;;4190653;28;20102;-59
2022/01/04 00:43:45;;;;;;;6.00;2.57;;;5.30;99.90;;;;;;4189512;28;20029;-62
2022/01/04 00:45:46;;;;;;;9.07;3.07;;;5.30;99.90;;;;;;4190655;28;20109;-58
2022/01/04 00:49:54;;;;;;;4.60;2.40;;;5.10;99.90;;;;;;4190094;28;20319;-59
2022/01/04 00:51:55;;;;;;;5.90;2.87;;;5.10;99.90;;;;;;4190153;28;20791;-61
2022/01/04 00:53:56;;;;;;;4.67;2.43;;;5.10;99.90;;;;;;4189789;28;20032;-58
2022/01/04 00:55:57;;;;;;;3.63;2.33;;;5.10;99.90;;;;;;4189016;28;20082;-60
2022/01/04 00:57:59;;;;;;;3.97;2.20;;;5.10;99.90;;;;;;4188871;28;20328;-58
2022/01/04 01:00:00;;;;;;;6.93;2.83;;;5.20;99.90;;;;;;4190084;28;20033;-58
2022/01/04 01:02:02;;;;;;;4.43;3.00;;;5.10;99.90;;;;;;4189532;28;20641;-60
2022/01/04 01:04:04;;;;;;;7.83;3.60;;;5.10;99.90;;;;;;4190891;28;20760;-60
2022/01/04 01:06:07;;;;;;;8.43;4.10;;;5.00;99.90;;;;;;4189258;28;20327;-60
2022/01/04 01:08:08;;;;;;;13.40;5.57;;;4.90;99.90;;;;;;4190210;28;20351;-59
2022/01/04 01:12:13;;;;;;;14.17;7.17;;;4.50;99.90;;;;;;4190575;28;20044;-60
2022/01/04 01:14:14;;;;;;;12.60;5.27;;;4.40;99.90;;;;;;4189401;28;20281;-59
2022/01/04 01:16:15;;;;;;;10.87;5.47;;;4.30;99.90;;;;;;4190547;28;20299;-60
2022/01/04 01:18:18;;;;;;;11.03;5.37;;;4.30;99.90;;;;;;4189240;28;20024;-60
2022/01/04 01:20:19;;;;;;;10.23;5.27;;;4.30;99.90;;;;;;4190337;28;20677;-55
2022/01/04 01:22:20;;;;;;;9.00;5.10;;;4.30;99.90;;;;;;4189324;28;20277;-59
2022/01/04 01:24:21;;;;;;;7.33;4.27;;;4.40;99.90;;;;;;4189844;28;20340;-61
2022/01/04 01:26:22;;;;;;;9.87;4.50;;;4.40;99.90;;;;;;4188983;28;20355;-59
2022/01/04 01:28:24;;;;;;;7.20;4.30;;;4.50;99.90;;;;;;4192627;28;20040;-59
2022/01/04 01:30:26;;;;;;;7.10;3.40;;;4.50;99.90;;;;;;4192831;28;20266;-59
2022/01/04 01:32:28;;;;;;;9.53;5.00;;;4.50;99.90;;;;;;4192707;28;20299;-59
2022/01/04 01:34:29;;;;;;;9.43;5.43;;;4.60;99.90;;;;;;4194022;28;20253;-59
2022/01/04 01:36:31;;;;;;;7.47;5.20;;;4.60;99.90;;;;;;4192848;28;20343;-58
2022/01/04 01:38:32;;;;;;;11.43;5.60;;;4.60;99.90;;;;;;4193339;28;20261;-58
2022/01/04 01:40:33;;;;;;;10.20;5.43;;;4.60;99.90;;;;;;4192096;28;20307;-57
2022/01/04 01:42:34;;;;;;;9.77;5.90;;;4.60;99.90;;;;;;4193375;28;20032;-59
2022/01/04 01:44:36;;;;;;;13.90;6.20;;;4.50;99.90;;;;;;4191928;28;20086;-60
2022/01/04 01:46:37;;;;;;;13.73;5.17;;;4.50;99.90;;;;;;4193488;28;20281;-58
2022/01/04 01:48:38;;;;;;;7.27;4.83;;;4.60;99.90;;;;;;4191970;28;20765;-59
2022/01/04 01:50:39;;;;;;;9.03;4.97;;;4.60;99.90;;;;;;4193395;28;20274;-59
2022/01/04 01:52:44;;;;;;;5.13;3.93;;;4.70;99.90;;;;;;4190800;28;20851;-58
2022/01/04 01:54:45;;;;;;;6.63;3.90;;;4.70;99.90;;;;;;4192331;28;20270;-57
2022/01/04 01:56:46;;;;;;;7.43;4.03;;;4.80;99.90;;;;;;4192337;28;20029;-60
2022/01/04 01:58:48;;;;;;;5.33;3.03;;;4.90;99.90;;;;;;4192506;28;20032;-58
2022/01/04 02:00:49;;;;;;;8.27;4.50;;;4.90;99.90;;;;;;4192999;28;20269;-61
2022/01/04 02:02:50;;;;;;;7.80;4.30;;;5.00;99.90;;;;;;4192426;28;20102;-57
2022/01/04 02:04:52;;;;;;;12.80;5.57;;;5.00;99.90;;;;;;4192696;28;20901;-58
2022/01/04 02:06:53;;;;;;;15.63;5.60;;;5.00;99.90;;;;;;4191595;28;20467;-60
2022/01/04 02:08:58;;;;;;;10.63;5.73;;;5.10;99.90;;;;;;4193071;28;20094;-60
2022/01/04 02:10:59;;;;;;;12.77;6.00;;;5.00;99.90;;;;;;4191463;28;20265;-59
2022/01/04 02:13:01;;;;;;;18.60;9.80;;;5.00;99.90;;;;;;4192757;28;20607;-59
2022/01/04 02:15:08;;;;;;;15.87;8.53;;;4.90;99.90;;;;;;4191396;28;20274;-59
2022/01/04 02:17:09;;;;;;;21.67;10.80;;;4.90;99.90;;;;;;4193162;28;20021;-59
2022/01/04 02:19:10;;;;;;;26.53;11.43;;;4.80;99.90;;;;;;4191596;28;20355;-59
2022/01/04 02:21:11;;;;;;;51.33;24.10;;;4.80;99.90;;;;;;4192874;28;20086;-58
2022/01/04 02:23:13;;;;;;;59.97;30.73;;;4.80;99.90;;;;;;4191269;28;20285;-58
2022/01/04 02:25:14;;;;;;;50.97;28.17;;;4.80;99.90;;;;;;4192523;28;20099;-61
2022/01/04 02:27:16;;;;;;;35.10;19.10;;;4.70;99.90;;;;;;4191605;28;21113;-59
2022/01/04 02:29:17;;;;;;;45.50;24.90;;;4.70;99.90;;;;;;4191797;28;20074;-60
2022/01/04 02:31:20;;;;;;;62.50;35.17;;;4.70;99.90;;;;;;4191989;28;20257;-58
2022/01/04 02:33:21;;;;;;;33.73;19.43;;;4.60;99.90;;;;;;4191739;28;20086;-64
2022/01/04 02:35:26;;;;;;;25.70;14.93;;;4.60;99.90;;;;;;4192498;28;20037;-60
2022/01/04 02:37:28;;;;;;;57.77;35.20;;;4.60;99.90;;;;;;4191305;28;20825;-59
2022/01/04 02:39:31;;;;;;;38.23;20.83;;;4.60;99.90;;;;;;4191457;28;20040;-60
2022/01/04 02:41:32;;;;;;;33.97;20.23;;;4.60;99.90;;;;;;4191278;28;20833;-56
2022/01/04 02:43:34;;;;;;;27.27;15.30;;;4.60;99.90;;;;;;4191233;28;20291;-61
2022/01/04 02:45:35;;;;;;;19.50;11.53;;;4.60;99.90;;;;;;4191138;28;20269;-57
2022/01/04 02:47:37;;;;;;;16.43;9.57;;;4.60;99.90;;;;;;4192121;28;20094;-58
2022/01/04 02:49:39;;;;;;;13.63;8.73;;;4.50;99.90;;;;;;4190520;28;20052;-56
2022/01/04 02:51:40;;;;;;;47.40;32.00;;;4.50;99.90;;;;;;4191090;28;20089;-57
2022/01/04 02:53:41;;;;;;;19.87;13.40;;;4.60;99.90;;;;;;4190992;28;20028;-60
2022/01/04 02:55:42;;;;;;;13.10;8.67;;;4.50;99.90;;;;;;4192325;28;20305;-60
2022/01/04 02:57:44;;;;;;;10.70;6.87;;;4.60;99.90;;;;;;4191445;28;21033;-58
2022/01/04 02:59:45;;;;;;;9.60;6.50;;;4.50;99.90;;;;;;4191589;28;20297;-58
2022/01/04 03:01:47;;;;;;;10.13;6.67;;;4.60;99.90;;;;;;4191145;28;20074;-59
2022/01/04 03:03:48;;;;;;;11.40;6.93;;;4.60;99.90;;;;;;4191395;28;20040;-57
2022/01/04 03:05:49;;;;;;;12.97;6.83;;;4.60;99.90;;;;;;4191667;28;20258;-58
2022/01/04 03:07:50;;;;;;;9.83;6.63;;;4.60;99.90;;;;;;4191048;28;20315;-61
2022/01/04 03:09:51;;;;;;;14.07;7.60;;;4.60;99.90;;;;;;4191574;28;20293;-53
2022/01/04 03:11:52;;;;;;;8.13;5.17;;;4.60;99.90;;;;;;4190637;28;20346;-59
2022/01/04 03:13:53;;;;;;;9.60;4.67;;;4.70;99.90;;;;;;4192030;28;20701;-59
2022/01/04 03:15:54;;;;;;;7.63;4.03;;;4.60;99.90;;;;;;4190563;28;20257;-58
2022/01/04 03:17:55;;;;;;;6.57;3.40;;;4.60;99.90;;;;;;4191755;28;20082;-58
2022/01/04 03:19:57;;;;;;;6.97;3.80;;;4.60;99.90;;;;;;4190929;28;20036;-60
2022/01/04 03:21:58;;;;;;;6.50;3.50;;;4.70;99.90;;;;;;4190933;28;20281;-60
2022/01/04 03:23:59;;;;;;;4.90;2.80;;;4.70;99.90;;;;;;4190639;28;20040;-62
2022/01/04 03:26:00;;;;;;;18.93;10.30;;;4.70;99.90;;;;;;4191515;28;20117;-58
2022/01/04 03:28:02;;;;;;;26.07;11.97;;;4.70;99.90;;;;;;4190428;28;20906;-59
2022/01/04 03:30:04;;;;;;;25.67;11.67;;;4.70;99.90;;;;;;4191049;28;20297;-54
2022/01/04 03:32:06;;;;;;;52.33;23.70;;;4.70;99.90;;;;;;4191303;28;20058;-59
2022/01/04 03:34:07;;;;;;;15.53;9.17;;;4.70;99.90;;;;;;4191122;28;20054;-58
2022/01/04 03:36:09;;;;;;;15.20;8.03;;;4.70;99.90;;;;;;4190974;28;20269;-61
2022/01/04 03:38:10;;;;;;;15.73;7.03;;;4.60;99.90;;;;;;4190438;28;20273;-60
2022/01/04 03:40:11;;;;;;;14.43;7.17;;;4.50;99.90;;;;;;4191605;28;20294;-57
2022/01/04 03:42:13;;;;;;;23.03;10.37;;;4.50;99.90;;;;;;4190199;28;20265;-59
2022/01/04 03:44:18;;;;;;;16.23;8.17;;;4.40;99.90;;;;;;4191222;28;20029;-58
2022/01/04 03:46:20;;;;;;;16.07;8.00;;;4.40;99.90;;;;;;4189973;28;20265;-58
2022/01/04 03:48:23;;;;;;;15.83;6.97;;;4.30;99.90;;;;;;4189957;28;20654;-57
2022/01/04 03:50:24;;;;;;;10.30;6.50;;;4.20;99.90;;;;;;4187943;28;20303;-58
2022/01/04 03:52:25;;;;;;;17.47;8.23;;;4.20;99.90;;;;;;4191317;28;20676;-58
2022/01/04 03:54:27;;;;;;;14.03;7.77;;;4.20;99.90;;;;;;4189899;28;20328;-58
2022/01/04 03:56:28;;;;;;;10.30;6.70;;;4.20;99.90;;;;;;4191299;28;20257;-59
2022/01/04 03:58:29;;;;;;;13.87;6.20;;;4.20;99.90;;;;;;4189739;28;20261;-60
2022/01/04 04:00:30;;;;;;;12.53;6.17;;;4.20;99.90;;;;;;4191297;28;20327;-58
2022/01/04 04:02:31;;;;;;;12.87;7.43;;;4.30;99.90;;;;;;4190943;28;21105;-59
2022/01/04 04:04:33;;;;;;;18.10;8.47;;;4.20;99.90;;;;;;4190949;28;20315;-59
2022/01/04 04:06:34;;;;;;;20.37;9.50;;;4.30;99.90;;;;;;4190339;28;20833;-62
2022/01/04 04:08:35;;;;;;;14.13;7.30;;;4.30;99.90;;;;;;4190388;28;20323;-58
2022/01/04 04:10:36;;;;;;;13.57;7.30;;;4.40;99.90;;;;;;4190886;28;20261;-58
2022/01/04 04:12:38;;;;;;;13.23;8.23;;;4.40;99.90;;;;;;4189928;28;20295;-56
2022/01/04 04:14:39;;;;;;;15.77;7.40;;;4.40;99.90;;;;;;4190444;28;20315;-59
2022/01/04 04:16:40;;;;;;;11.90;6.90;;;4.40;99.90;;;;;;4190079;28;20262;-59
2022/01/04 04:18:42;;;;;;;10.17;6.17;;;4.50;99.90;;;;;;4190716;28;20269;-60
2022/01/04 04:20:44;;;;;;;11.90;6.40;;;4.50;99.90;;;;;;4190043;28;20265;-58
2022/01/04 04:22:46;;;;;;;11.40;6.90;;;4.40;99.90;;;;;;4191028;28;20269;-57
2022/01/04 04:24:47;;;;;;;12.13;6.50;;;4.40;99.90;;;;;;4189564;28;20296;-58
2022/01/04 04:26:49;;;;;;;10.00;5.70;;;4.40;99.90;;;;;;4190603;28;20274;-56
2022/01/04 04:28:50;;;;;;;10.53;6.27;;;4.30;99.90;;;;;;4189297;28;20827;-59
2022/01/04 04:30:51;;;;;;;10.93;5.83;;;4.30;99.90;;;;;;4190833;28;20314;-57
2022/01/04 04:32:52;;;;;;;12.20;8.00;;;4.30;99.90;;;;;;4189827;28;20249;-57
2022/01/04 04:34:53;;;;;;;11.43;6.83;;;4.30;99.90;;;;;;4190530;28;20258;-59
2022/01/04 04:36:54;;;;;;;13.33;7.73;;;4.30;99.90;;;;;;4189743;28;20262;-57
2022/01/04 04:38:55;;;;;;;12.13;8.27;;;4.20;99.90;;;;;;4189840;28;20668;-59
2022/01/04 04:40:57;;;;;;;15.13;8.47;;;4.20;99.90;;;;;;4190497;28;20265;-60
2022/01/04 04:42:58;;;;;;;20.70;8.00;;;4.20;99.90;;;;;;4189643;28;20343;-56
2022/01/04 04:44:59;;;;;;;15.07;8.63;;;4.20;99.90;;;;;;4189993;28;20323;-60
2022/01/04 04:47:00;;;;;;;15.33;9.10;;;4.20;99.90;;;;;;4189299;28;20311;-62
2022/01/04 04:49:02;;;;;;;15.83;9.67;;;4.20;99.90;;;;;;4190018;28;20297;-58
2022/01/04 04:51:03;;;;;;;16.33;9.90;;;4.20;99.90;;;;;;4189571;28;20727;-60
2022/01/04 04:53:04;;;;;;;12.30;8.37;;;4.20;99.90;;;;;;4190930;28;20265;-60
2022/01/04 04:55:06;;;;;;;14.37;6.97;;;4.20;99.90;;;;;;4189130;28;20281;-60
2022/01/04 04:57:08;;;;;;;10.30;6.03;;;4.30;99.90;;;;;;4189805;28;20319;-59
2022/01/04 04:59:09;;;;;;;11.17;6.10;;;4.30;99.90;;;;;;4188900;28;20273;-59
2022/01/04 05:01:10;;;;;;;9.83;5.50;;;4.30;99.90;;;;;;4190327;28;20277;-59
2022/01/04 05:03:11;;;;;;;9.33;5.20;;;4.30;99.90;;;;;;4193484;28;20311;-58
2022/01/04 05:05:13;;;;;;;19.23;9.73;;;4.30;99.90;;;;;;4193457;28;20369;-59
2022/01/04 05:07:14;;;;;;;19.57;9.67;;;4.30;99.90;;;;;;4174822;28;20319;-56
2022/01/04 05:09:15;;;;;;;13.90;7.63;;;4.30;99.90;;;;;;4192890;28;20362;-60
2022/01/04 05:11:16;;;;;;;22.37;11.67;;;4.30;99.90;;;;;;4193526;28;20262;-60
2022/01/04 05:13:17;;;;;;;25.00;13.10;;;4.40;99.90;;;;;;4192520;28;20261;-60
2022/01/04 05:15:18;;;;;;;28.60;14.47;;;4.40;99.90;;;;;;4192818;28;20826;-61
2022/01/04 05:17:19;;;;;;;28.30;14.37;;;4.40;99.90;;;;;;4192107;28;20664;-63
2022/01/04 05:19:20;;;;;;;21.87;12.10;;;4.40;99.90;;;;;;4193742;28;20893;-61
2022/01/04 05:21:22;;;;;;;20.13;9.93;;;4.40;99.90;;;;;;4191582;28;20287;-57
2022/01/04 05:23:23;;;;;;;21.63;11.47;;;4.40;99.90;;;;;;4193138;28;20851;-58
2022/01/04 05:25:24;;;;;;;27.80;15.03;;;4.40;99.90;;;;;;4192063;28;20339;-58
2022/01/04 05:27:25;;;;;;;14.60;9.40;;;4.30;99.90;;;;;;4192844;28;21251;-57
2022/01/04 05:29:27;;;;;;;15.47;7.53;;;4.30;99.90;;;;;;4191542;28;20289;-56
2022/01/04 05:31:28;;;;;;;16.10;8.70;;;4.20;99.90;;;;;;4193114;28;20273;-57
2022/01/04 05:33:29;;;;;;;14.90;8.30;;;4.20;99.90;;;;;;4192086;28;20672;-58
2022/01/04 05:35:31;;;;;;;18.43;10.03;;;4.20;99.90;;;;;;4192756;28;20250;-61
2022/01/04 05:37:32;;;;;;;15.43;8.70;;;4.30;99.90;;;;;;4191829;28;20277;-58
2022/01/04 05:39:33;;;;;;;13.70;8.27;;;4.30;99.90;;;;;;4192741;28;20754;-60
2022/01/04 05:41:34;;;;;;;15.47;8.67;;;4.20;99.90;;;;;;4192472;28;20299;-56
2022/01/04 05:43:36;;;;;;;17.10;10.43;;;4.20;99.90;;;;;;4189580;28;20338;-58
2022/01/04 05:45:37;;;;;;;14.50;8.87;;;4.10;99.90;;;;;;4192328;28;20311;-57
2022/01/04 05:47:38;;;;;;;17.50;9.47;;;4.10;99.90;;;;;;4191874;28;20269;-59
2022/01/04 05:49:39;;;;;;;13.00;7.17;;;4.10;99.90;;;;;;4192698;28;20319;-57
2022/01/04 05:51:41;;;;;;;21.13;12.97;;;4.10;99.90;;;;;;4190339;28;20331;-60
2022/01/04 05:53:42;;;;;;;14.23;9.70;;;4.00;99.90;;;;;;4192949;28;20285;-60
2022/01/04 05:55:44;;;;;;;22.50;11.50;;;3.90;99.90;;;;;;4191970;28;20274;-58
2022/01/04 05:57:45;;;;;;;23.13;11.77;;;3.80;99.90;;;;;;4192679;28;20318;-58
2022/01/04 05:59:46;;;;;;;23.27;13.20;;;3.80;99.90;;;;;;4191384;28;20823;-59
2022/01/04 06:01:47;;;;;;;22.17;10.87;;;3.70;99.90;;;;;;4192527;28;20261;-59
2022/01/04 06:03:51;;;;;;;26.97;13.80;;;3.60;99.90;;;;;;4192173;28;20327;-58
2022/01/04 06:05:53;;;;;;;29.10;14.40;;;3.60;99.90;;;;;;4192205;28;20278;-58
2022/01/04 06:07:54;;;;;;;28.83;14.17;;;3.60;99.90;;;;;;4191404;28;20290;-61
2022/01/04 06:09:56;;;;;;;26.97;14.63;;;3.60;99.90;;;;;;4191968;28;20346;-59
2022/01/04 06:12:00;;;;;;;28.20;14.33;;;3.60;99.90;;;;;;4191717;28;20751;-60
2022/01/04 06:16:21;;;;;;;23.70;12.77;;;3.60;99.90;;;;;;4185207;28;20332;-54
2022/01/04 06:18:22;;;;;;;24.60;12.70;;;3.60;99.90;;;;;;4191205;28;20688;-58
2022/01/04 06:20:26;;;;;;;24.93;11.60;;;3.70;99.90;;;;;;4192255;28;20347;-58
2022/01/04 06:22:28;;;;;;;31.23;15.70;;;3.70;99.90;;;;;;4191175;28;20407;-60
2022/01/04 06:24:29;;;;;;;18.47;10.47;;;3.90;99.90;;;;;;4191861;28;20639;-60
2022/01/04 06:26:30;;;;;;;21.17;11.73;;;4.10;99.90;;;;;;4190810;28;20350;-60
2022/01/04 06:28:32;;;;;;;23.43;10.97;;;4.30;99.90;;;;;;4192175;28;20261;-59
2022/01/04 06:30:34;;;;;;;22.33;11.97;;;4.50;99.90;;;;;;4190063;28;20351;-58
2022/01/04 06:32:36;;;;;;;21.80;10.90;;;4.70;99.90;;;;;;4192769;28;20327;-59
2022/01/04 06:34:39;;;;;;;20.20;10.97;;;4.90;99.90;;;;;;4190822;28;20724;-59
2022/01/04 06:36:41;;;;;;;21.83;11.47;;;4.90;99.90;;;;;;4192901;28;20025;-58
2022/01/04 06:38:42;;;;;;;26.97;13.30;;;5.00;99.90;;;;;;4190872;28;20303;-60
2022/01/04 06:40:43;;;;;;;12.43;7.90;;;5.00;99.90;;;;;;4191550;28;20327;-61
2022/01/04 06:42:44;;;;;;;23.97;12.70;;;4.90;99.90;;;;;;4191148;28;20036;-60
2022/01/04 06:44:45;;;;;;;22.63;10.20;;;4.90;99.90;;;;;;4190793;28;20044;-59
2022/01/04 06:46:46;;;;;;;23.27;12.43;;;4.80;99.90;;;;;;4190963;28;20028;-55
2022/01/04 06:48:47;;;;;;;24.13;12.83;;;4.60;99.90;;;;;;4191757;28;20040;-57
2022/01/04 06:50:48;;;;;;;30.27;13.10;;;4.50;99.90;;;;;;4190012;28;20078;-58
2022/01/04 06:52:50;;;;;;;20.27;12.20;;;4.40;99.90;;;;;;4191082;28;20086;-59
2022/01/04 06:54:51;;;;;;;24.73;12.73;;;4.30;99.90;;;;;;4192189;28;20342;-58
2022/01/04 06:56:52;;;;;;;14.83;8.13;;;4.40;99.90;;;;;;4191115;28;20327;-59
2022/01/04 06:58:53;;;;;;;18.83;10.17;;;4.40;99.90;;;;;;4191423;28;20326;-59
2022/01/04 07:00:54;;;;;;;15.97;8.50;;;4.50;99.90;;;;;;4190286;28;20335;-57
2022/01/04 07:02:55;;;;;;;19.97;9.17;;;4.60;99.90;;;;;;4192190;28;20323;-59
2022/01/04 07:04:56;;;;;;;18.27;9.23;;;4.60;99.90;;;;;;4190773;28;20332;-59
2022/01/04 07:06:58;;;;;;;19.37;9.53;;;4.60;99.90;;;;;;4191989;28;20422;-58
2022/01/04 07:08:59;;;;;;;13.57;7.43;;;4.60;99.90;;;;;;4190673;28;20281;-57
2022/01/04 07:11:00;;;;;;;10.23;6.33;;;4.60;99.90;;;;;;4191267;28;20331;-57
2022/01/04 07:13:02;;;;;;;14.13;6.97;;;4.60;99.90;;;;;;4190636;28;20310;-59
2022/01/04 07:15:03;;;;;;;14.07;7.23;;;4.70;99.90;;;;;;4190496;28;20281;-57
2022/01/04 07:17:04;;;;;;;21.27;8.63;;;4.70;99.90;;;;;;4191032;28;20335;-60
2022/01/04 07:19:05;;;;;;;22.77;11.70;;;4.70;99.90;;;;;;4191228;28;20343;-58
2022/01/04 07:21:07;;;;;;;14.07;6.50;;;4.70;99.90;;;;;;4191182;28;20257;-58
2022/01/04 07:23:08;;;;;;;13.20;5.47;;;4.70;99.90;;;;;;4190204;28;20616;-62
2022/01/04 07:25:10;;;;;;;9.80;5.80;;;4.70;99.90;;;;;;4189374;28;20733;-55
2022/01/04 07:27:11;;;;;;;8.33;4.97;;;4.80;99.90;;;;;;4190231;28;20274;-59
2022/01/04 07:29:12;;;;;;;8.87;4.73;;;4.90;99.90;;;;;;4190547;28;20277;-58
2022/01/04 07:31:14;;;;;;;6.60;3.73;;;5.00;99.90;;;;;;4190026;28;20273;-59
2022/01/04 07:33:17;;;;;;;6.17;3.27;;;5.00;99.90;;;;;;4191831;28;20266;-55
2022/01/04 07:35:18;;;;;;;6.80;3.83;;;5.10;99.90;;;;;;4189761;28;20331;-58
2022/01/04 07:37:21;;;;;;;7.87;4.27;;;5.20;99.90;;;;;;4190887;28;20261;-58
2022/01/04 07:39:22;;;;;;;8.07;4.20;;;5.40;99.90;;;;;;4187028;28;20839;-60
2022/01/04 07:41:23;;;;;;;8.33;3.90;;;5.50;99.90;;;;;;4190997;28;20509;-60
2022/01/04 07:43:24;;;;;;;5.23;3.60;;;5.70;99.90;;;;;;4189942;28;20029;-57
2022/01/04 07:45:35;;;;;;;9.83;4.20;;;5.90;99.90;;;;;;4190672;28;20094;-56
2022/01/04 07:47:37;;;;;;;7.55;4.22;;;6.10;99.90;;;;;;4189960;28;20074;-62
2022/01/04 07:49:38;;;;;;;10.13;4.80;;;6.20;99.90;;;;;;4190872;28;20137;-62
2022/01/04 07:51:39;;;;;;;9.93;4.90;;;6.40;99.90;;;;;;4190490;28;20032;-56
2022/01/04 07:53:40;;;;;;;12.47;5.23;;;6.60;99.90;;;;;;4189797;28;20448;-59
2022/01/04 07:55:42;;;;;;;9.90;5.60;;;6.80;99.90;;;;;;4190658;28;20048;-60
2022/01/04 07:57:44;;;;;;;12.33;5.33;;;7.10;99.90;;;;;;4189364;28;20036;-58
2022/01/04 07:59:45;;;;;;;8.40;5.73;;;7.10;99.90;;;;;;4190453;28;20021;-60
2022/01/04 08:01:46;;;;;;;10.70;5.30;;;7.30;99.90;;;;;;4189925;28;20082;-58
2022/01/04 08:03:48;;;;;;;9.33;5.33;;;7.40;99.90;;;;;;4190945;28;20032;-59
2022/01/04 08:05:49;;;;;;;5.73;4.57;;;7.50;99.90;;;;;;4189339;28;20044;-58
2022/01/04 08:07:50;;;;;;;11.70;5.70;;;7.40;99.90;;;;;;4190818;28;20032;-62
2022/01/04 08:09:52;;;;;;;8.60;4.80;;;7.40;99.90;;;;;;4189365;28;20082;-61
2022/01/04 08:11:53;;;;;;;9.73;4.53;;;7.50;99.90;;;;;;4189120;28;20602;-57
2022/01/04 08:13:55;;;;;;;11.10;4.73;;;7.60;99.90;;;;;;4189029;28;20024;-59
2022/01/04 08:15:56;;;;;;;11.77;4.67;;;7.70;99.90;;;;;;4190748;28;20090;-62
2022/01/04 08:17:58;;;;;;;7.93;4.40;;;7.80;99.90;;;;;;4189411;28;20082;-56
2022/01/04 08:20:00;;;;;;;11.33;5.13;;;8.00;99.90;;;;;;4190100;28;20025;-59
2022/01/04 08:22:01;;;;;;;9.53;5.30;;;8.00;99.90;;;;;;4189573;28;20032;-60
2022/01/04 08:24:03;;;;;;;7.37;3.63;;;8.00;99.90;;;;;;4190062;28;20489;-59
2022/01/04 08:26:04;;;;;;;7.33;3.93;;;7.90;99.90;;;;;;4189775;28;20036;-59
2022/01/04 08:28:05;;;;;;;6.90;3.73;;;7.90;99.90;;;;;;4189441;28;20032;-58
2022/01/04 08:30:10;;;;;;;8.23;4.60;;;7.90;99.90;;;;;;4190270;28;20094;-60
2022/01/04 08:32:11;;;;;;;6.77;4.03;;;7.90;99.90;;;;;;4189126;28;20028;-57
2022/01/04 08:34:12;;;;;;;9.43;4.57;;;7.80;99.90;;;;;;4191189;28;20040;-59
2022/01/04 08:36:14;;;;;;;7.13;4.10;;;7.90;99.90;;;;;;4186492;28;20781;-56
2022/01/04 08:38:15;;;;;;;8.70;4.40;;;8.00;99.90;;;;;;4190299;28;20036;-58
2022/01/04 08:40:16;;;;;;;8.30;4.33;;;8.10;99.90;;;;;;4188913;28;20089;-58
2022/01/04 08:42:18;;;;;;;7.13;4.70;;;8.20;99.90;;;;;;4190499;28;20052;-56
2022/01/04 08:44:19;;;;;;;10.17;5.50;;;8.30;99.90;;;;;;4188773;28;20024;-55
2022/01/04 08:46:21;;;;;;;10.57;5.10;;;8.50;99.90;;;;;;4190179;28;20089;-58
2022/01/04 08:48:23;;;;;;;14.20;5.63;;;8.50;99.90;;;;;;4189192;28;20443;-58
2022/01/04 08:50:24;;;;;;;13.23;6.10;;;8.60;99.90;;;;;;4189832;28;20045;-56
2022/01/04 08:52:27;;;;;;;11.33;6.67;;;8.70;99.90;;;;;;4189146;28;20032;-58
2022/01/04 08:54:28;;;;;;;10.93;6.27;;;8.80;99.90;;;;;;4173578;28;20089;-59
2022/01/04 08:56:29;;;;;;;11.77;5.87;;;8.90;99.90;;;;;;4172884;28;20036;-60
2022/01/04 08:58:31;;;;;;;6.53;3.90;;;9.00;99.90;;;;;;4173325;28;20106;-59
2022/01/04 09:00:32;;;;;;;8.07;4.60;;;9.00;99.90;;;;;;4173307;28;20086;-59
2022/01/04 09:02:33;;;;;;;7.57;3.97;;;9.00;99.90;;;;;;4172664;28;20029;-60
2022/01/04 09:04:34;;;;;;;8.73;4.40;;;9.00;99.90;;;;;;4174733;28;20033;-59
2022/01/04 09:06:36;;;;;;;8.83;4.00;;;9.10;99.90;;;;;;4172690;28;20453;-58
2022/01/04 09:08:37;;;;;;;6.37;3.50;;;9.10;99.90;;;;;;4173630;28;20485;-59
2022/01/04 09:10:38;;;;;;;7.37;3.33;;;9.20;99.90;;;;;;4181401;28;20399;-59
2022/01/04 09:13:08;;;;;;;6.50;3.53;;;9.20;99.90;;;;;;4190208;28;20066;-56
2022/01/04 09:20:05;;;;;;;7.30;2.97;;;9.50;99.90;;;;;;4165237;28;20029;-60
2022/01/04 09:22:07;;;;;;;4.23;2.30;;;9.60;99.90;;;;;;4189410;28;20041;-58
2022/01/04 09:24:08;;;;;;;3.97;2.33;;;9.70;99.90;;;;;;4188849;28;20036;-56
2022/01/04 09:26:10;;;;;;;4.03;2.87;;;9.70;99.90;;;;;;4189872;28;20052;-58
2022/01/04 09:28:12;;;;;;;5.27;3.00;;;9.80;99.90;;;;;;4188034;28;20029;-58
2022/01/04 09:30:13;;;;;;;5.37;2.93;;;9.90;99.90;;;;;;4189687;28;20036;-57
2022/01/04 09:32:16;;;;;;;5.03;2.90;;;9.90;99.90;;;;;;4189068;28;20048;-60
2022/01/04 09:34:18;;;;;;;5.07;2.90;;;9.90;99.90;;;;;;4189264;28;20116;-59
2022/01/04 09:36:19;;;;;;;8.53;3.90;;;10.00;99.90;;;;;;4187604;28;20036;-59
2022/01/04 09:38:20;;;;;;;8.70;3.10;;;10.20;99.90;;;;;;4190030;28;20144;-58
2022/01/04 09:40:22;;;;;;;5.00;3.07;;;10.40;99.90;;;;;;4188932;28;20036;-59
2022/01/04 09:42:23;;;;;;;8.03;3.20;;;10.60;99.90;;;;;;4189745;28;20089;-59
2022/01/04 09:44:25;;;;;;;7.53;3.37;;;10.90;99.90;;;;;;4188558;28;20477;-58
2022/01/04 09:46:26;;;;;;;6.77;2.97;;;10.90;99.90;;;;;;4189394;28;20357;-60
2022/01/04 09:48:27;;;;;;;7.10;2.67;;;11.10;99.90;;;;;;4190717;28;20906;-59
2022/01/04 09:50:30;;;;;;;5.97;2.60;;;11.20;99.90;;;;;;4192321;28;20040;-58
2022/01/04 09:52:32;;;;;;;5.17;2.97;;;11.30;99.90;;;;;;4192531;28;20044;-59
2022/01/04 09:54:34;;;;;;;6.03;2.50;;;11.30;99.90;;;;;;4191760;28;20032;-58
2022/01/04 09:56:35;;;;;;;5.17;2.90;;;11.10;99.90;;;;;;4192374;28;20057;-59
2022/01/04 09:58:36;;;;;;;10.40;3.23;;;11.00;99.90;;;;;;4191294;28;20036;-59
2022/01/04 10:00:37;;;;;;;7.47;3.83;;;10.90;99.90;;;;;;4192702;28;20032;-60
2022/01/04 10:02:38;;;;;;;8.47;3.30;;;10.80;99.90;;;;;;4191674;28;20098;-59
2022/01/04 10:04:40;;;;;;;8.90;3.30;;;10.70;99.90;;;;;;4192658;28;20550;-59
2022/01/04 10:07:03;;;;;;;5.60;2.70;;;10.70;99.90;;;;;;4189918;28;20094;-58
2022/01/04 10:09:08;;;;;;;9.53;2.93;;;10.50;99.90;;;;;;4192486;28;20090;-59
2022/01/04 10:11:11;;;;;;;9.17;3.03;;;10.50;99.90;;;;;;4191202;28;20036;-58
2022/01/04 10:13:15;;;;;;;9.30;3.33;;;10.50;99.90;;;;;;4192648;28;20082;-58
2022/01/04 10:15:36;;;;;;;11.37;4.13;;;10.60;99.90;;;;;;4190796;28;20028;-58
2022/01/04 10:17:37;;;;;;;6.17;3.03;;;10.60;99.90;;;;;;4192156;28;20059;-60
2022/01/04 10:19:50;;;;;;;5.50;3.20;;;10.60;99.90;;;;;;4191208;28;20094;-60
2022/01/04 10:22:08;;;;;;;12.13;4.00;;;10.60;99.90;;;;;;4192310;28;20085;-58
2022/01/04 10:24:09;;;;;;;8.77;3.63;;;10.70;99.90;;;;;;4191215;28;20033;-59
2022/01/04 10:26:11;;;;;;;8.17;3.87;;;10.70;99.90;;;;;;4192255;28;20082;-59
2022/01/04 10:28:26;;;;;;;7.07;3.17;;;10.80;99.90;;;;;;4189057;28;20036;-58
2022/01/04 10:30:35;;;;;;;16.37;5.43;;;10.80;99.90;;;;;;4190315;28;20357;-56
2022/01/04 10:33:06;;;;;;;14.40;6.13;;;10.80;99.90;;;;;;4189032;28;20024;-57
2022/01/04 10:35:07;;;;;;;5.23;3.23;;;10.80;99.90;;;;;;4175397;28;20037;-59
2022/01/04 10:37:36;;;;;;;16.80;5.57;;;10.80;99.90;;;;;;4189590;28;20130;-58
2022/01/04 10:39:37;;;;;;;8.40;3.23;;;10.80;99.90;;;;;;4192010;28;20032;-59
2022/01/04 10:41:38;;;;;;;7.47;3.20;;;10.70;99.90;;;;;;4191083;28;20029;-59
2022/01/04 10:43:45;;;;;;;13.50;4.60;;;10.70;99.90;;;;;;4191640;28;20025;-60
2022/01/04 10:45:48;;;;;;;15.30;4.80;;;10.70;99.90;;;;;;4190461;28;20534;-59
2022/01/04 10:47:49;;;;;;;15.57;4.50;;;10.70;99.90;;;;;;4191579;28;20068;-59
2022/01/04 10:49:50;;;;;;;8.97;3.13;;;10.70;99.90;;;;;;4189930;28;20035;-60